createdAt,value
2018-12-18T00:00:21.820Z,3.51
2018-12-18T00:01:21.764Z,3.48
2018-12-18T00:02:22.040Z,3.42
2018-12-18T00:03:21.744Z,3.41
2018-12-18T00:04:21.732Z,3.42
2018-12-18T00:05:21.730Z,3.30
2018-12-18T00:06:21.709Z,3.45
2018-12-18T00:07:21.698Z,3.35
2018-12-18T00:08:21.734Z,3.41
2018-12-18T00:09:21.678Z,3.48
2018-12-18T00:10:21.666Z,3.44
2018-12-18T00:11:21.659Z,3.32
2018-12-18T00:12:21.652Z,3.44
2018-12-18T00:13:21.636Z,3.33
2018-12-18T00:14:21.672Z,3.36
2018-12-18T00:15:21.614Z,3.44
2018-12-18T00:16:21.605Z,3.42
2018-12-18T00:17:21.590Z,3.41
2018-12-18T00:18:21.580Z,3.46
2018-12-18T00:19:21.570Z,3.48
2018-12-18T00:20:21.609Z,3.30
2018-12-18T00:21:21.546Z,3.41
2018-12-18T00:22:21.538Z,3.33
2018-12-18T00:23:21.525Z,3.32
2018-12-18T00:24:21.515Z,3.49
2018-12-18T00:25:21.507Z,3.45
2018-12-18T00:26:21.532Z,3.45
2018-12-18T00:27:21.484Z,3.48
2018-12-18T00:28:21.472Z,3.49
2018-12-18T00:29:21.486Z,3.56
2018-12-18T00:30:21.453Z,3.51
2018-12-18T00:31:21.439Z,3.44
2018-12-18T00:32:21.468Z,3.46
2018-12-18T00:33:21.419Z,3.41
2018-12-18T00:34:21.421Z,3.36
2018-12-18T00:35:21.395Z,3.41
2018-12-18T00:36:21.386Z,3.32
2018-12-18T00:37:21.423Z,3.30
2018-12-18T00:38:21.365Z,3.25
2018-12-18T00:39:21.352Z,3.30
2018-12-18T00:40:21.346Z,3.27
2018-12-18T00:41:21.334Z,3.32
2018-12-18T00:42:21.321Z,3.20
2018-12-18T00:43:21.359Z,3.17
2018-12-18T00:44:21.299Z,3.29
2018-12-18T00:45:21.287Z,3.29
2018-12-18T00:46:21.277Z,3.11
2018-12-18T00:47:21.268Z,3.17
2018-12-18T00:48:21.255Z,3.29
2018-12-18T00:49:21.286Z,3.29
2018-12-18T00:50:21.240Z,3.32
2018-12-18T00:51:21.280Z,3.35
2018-12-18T00:52:21.212Z,3.20
2018-12-18T00:53:21.201Z,3.26
2018-12-18T00:54:21.191Z,3.29
2018-12-18T00:55:21.180Z,3.25
2018-12-18T00:56:21.169Z,3.27
2018-12-18T00:57:21.197Z,3.35
2018-12-18T00:58:21.192Z,3.25
2018-12-18T00:59:21.143Z,3.35
2018-12-18T01:00:21.130Z,3.17
2018-12-18T01:01:21.115Z,3.35
2018-12-18T01:02:21.104Z,3.26
2018-12-18T01:03:21.093Z,3.29
2018-12-18T01:04:21.132Z,3.26
2018-12-18T01:05:21.073Z,3.29
2018-12-18T01:06:21.112Z,3.30
2018-12-18T01:07:21.051Z,3.23
2018-12-18T01:08:21.045Z,3.25
2018-12-18T01:09:21.029Z,3.22
2018-12-18T01:10:21.017Z,3.22
2018-12-18T01:11:21.007Z,3.23
2018-12-18T01:12:21.057Z,3.09
2018-12-18T01:13:20.985Z,3.11
2018-12-18T01:14:20.979Z,3.09
2018-12-18T01:15:20.963Z,3.14
2018-12-18T01:16:20.953Z,3.08
2018-12-18T01:17:20.943Z,3.12
2018-12-18T01:18:20.969Z,3.14
2018-12-18T01:19:20.927Z,3.17
2018-12-18T01:20:20.966Z,3.17
2018-12-18T01:21:20.898Z,3.15
2018-12-18T01:22:20.890Z,3.18
2018-12-18T01:23:20.878Z,3.12
2018-12-18T01:24:20.907Z,3.25
2018-12-18T01:25:20.865Z,3.22
2018-12-18T01:26:20.844Z,3.15
2018-12-18T01:27:20.834Z,3.15
2018-12-18T01:28:20.826Z,3.12
2018-12-18T01:29:20.855Z,3.14
2018-12-18T01:30:20.801Z,3.18
2018-12-18T01:31:20.793Z,3.11
2018-12-18T01:32:20.781Z,3.05
2018-12-18T01:33:20.783Z,3.14
2018-12-18T01:34:20.758Z,3.12
2018-12-18T01:35:20.793Z,3.25
2018-12-18T01:36:20.740Z,3.20
2018-12-18T01:37:20.725Z,3.07
2018-12-18T01:38:20.715Z,3.09
2018-12-18T01:39:20.751Z,3.12
2018-12-18T01:40:20.694Z,3.09
2018-12-18T01:41:20.686Z,3.18
2018-12-18T01:42:20.670Z,3.11
2018-12-18T01:43:20.662Z,3.07
2018-12-18T01:44:20.695Z,3.09
2018-12-18T01:45:20.640Z,3.15
2018-12-18T01:46:20.628Z,3.15
2018-12-18T01:47:20.662Z,3.12
2018-12-18T01:48:20.657Z,3.11
2018-12-18T01:49:20.596Z,3.07
2018-12-18T01:50:20.585Z,3.11
2018-12-18T01:51:20.573Z,3.02
2018-12-18T01:52:20.838Z,3.04
2018-12-18T01:53:20.552Z,2.96
2018-12-18T01:54:20.544Z,2.94
2018-12-18T01:55:20.553Z,2.94
2018-12-18T01:56:20.525Z,2.99
2018-12-18T01:57:20.510Z,2.99
2018-12-18T01:58:20.547Z,2.99
2018-12-18T01:59:20.496Z,2.93
2018-12-18T02:00:20.508Z,2.97
2018-12-18T02:01:20.467Z,2.99
2018-12-18T02:02:20.457Z,2.96
2018-12-18T02:03:20.445Z,2.96
2018-12-18T02:04:20.490Z,3.00
2018-12-18T02:05:20.426Z,2.84
2018-12-18T02:06:20.418Z,2.90
2018-12-18T02:07:20.403Z,2.79
2018-12-18T02:08:20.393Z,2.86
2018-12-18T02:09:20.386Z,2.84
2018-12-18T02:10:20.417Z,2.91
2018-12-18T02:11:20.358Z,2.99
2018-12-18T02:12:20.347Z,2.86
2018-12-18T02:13:20.339Z,2.96
2018-12-18T02:14:20.326Z,2.94
2018-12-18T02:15:20.356Z,3.00
2018-12-18T02:16:20.346Z,2.96
2018-12-18T02:17:20.294Z,2.93
2018-12-18T02:18:20.282Z,2.97
2018-12-18T02:19:20.272Z,2.97
2018-12-18T02:20:20.261Z,2.97
2018-12-18T02:21:20.299Z,2.97
2018-12-18T02:22:20.244Z,3.02
2018-12-18T02:23:20.230Z,2.99
2018-12-18T02:24:20.265Z,2.99
2018-12-18T02:25:20.212Z,3.07
2018-12-18T02:26:20.196Z,3.09
2018-12-18T02:27:20.188Z,3.09
2018-12-18T02:28:20.176Z,3.15
2018-12-18T02:29:20.213Z,3.12
2018-12-18T02:30:20.153Z,3.15
2018-12-18T02:31:20.146Z,3.07
2018-12-18T02:32:20.134Z,3.12
2018-12-18T02:33:20.126Z,3.11
2018-12-18T02:34:20.111Z,3.15
2018-12-18T02:35:20.144Z,3.14
2018-12-18T02:36:20.089Z,3.15
2018-12-18T02:37:20.077Z,3.11
2018-12-18T02:38:20.066Z,3.11
2018-12-18T02:39:20.098Z,3.04
2018-12-18T02:40:20.050Z,2.93
2018-12-18T02:41:20.034Z,3.04
2018-12-18T02:42:20.025Z,3.07
2018-12-18T02:43:20.014Z,3.00
2018-12-18T02:44:20.041Z,2.99
2018-12-18T02:45:20.001Z,2.99
2018-12-18T02:46:19.982Z,2.96
2018-12-18T02:47:20.015Z,2.97
2018-12-18T02:48:19.957Z,3.02
2018-12-18T02:49:19.949Z,2.96
2018-12-18T02:50:19.935Z,2.94
2018-12-18T02:51:19.925Z,2.94
2018-12-18T02:52:19.955Z,2.82
2018-12-18T02:53:19.906Z,2.94
2018-12-18T02:54:19.893Z,2.84
2018-12-18T02:55:19.883Z,2.90
2018-12-18T02:56:19.872Z,2.82
2018-12-18T02:57:19.860Z,2.87
2018-12-18T02:58:19.889Z,2.87
2018-12-18T02:59:19.877Z,2.84
2018-12-18T03:00:19.872Z,2.84
2018-12-18T03:01:19.821Z,2.99
2018-12-18T03:02:19.809Z,2.96
2018-12-18T03:03:19.801Z,2.93
2018-12-18T03:04:21.657Z,2.99
2018-12-18T03:05:19.776Z,2.93
2018-12-18T03:06:19.806Z,2.94
2018-12-18T03:07:19.790Z,2.96
2018-12-18T03:08:19.742Z,2.97
2018-12-18T03:09:19.739Z,2.96
2018-12-18T03:10:19.762Z,2.99
2018-12-18T03:11:19.711Z,2.97
2018-12-18T03:12:19.700Z,2.93
2018-12-18T03:13:19.969Z,2.93
2018-12-18T03:14:19.679Z,2.93
2018-12-18T03:15:19.667Z,2.87
2018-12-18T03:16:19.656Z,2.78
2018-12-18T03:17:19.648Z,2.84
2018-12-18T03:18:19.635Z,2.94
2018-12-18T03:19:19.668Z,2.93
2018-12-18T03:20:19.611Z,2.87
2018-12-18T03:21:19.604Z,2.89
2018-12-18T03:22:19.632Z,2.90
2018-12-18T03:23:19.582Z,2.89
2018-12-18T03:24:19.613Z,2.84
2018-12-18T03:25:19.558Z,2.84
2018-12-18T03:26:19.546Z,2.94
2018-12-18T03:27:19.538Z,2.82
2018-12-18T03:28:19.551Z,2.82
2018-12-18T03:29:19.513Z,2.93
2018-12-18T03:30:19.544Z,2.96
2018-12-18T03:31:19.497Z,2.97
2018-12-18T03:32:19.483Z,2.91
2018-12-18T03:33:19.471Z,2.94
2018-12-18T03:34:19.508Z,2.90
2018-12-18T03:35:19.452Z,2.94
2018-12-18T03:36:19.437Z,2.81
2018-12-18T03:37:19.429Z,2.89
2018-12-18T03:38:19.415Z,2.81
2018-12-18T03:39:19.407Z,2.84
2018-12-18T03:40:19.436Z,2.96
2018-12-18T03:41:19.385Z,2.94
2018-12-18T03:42:19.427Z,2.97
2018-12-18T03:43:19.361Z,2.94
2018-12-18T03:44:19.353Z,2.97
2018-12-18T03:45:19.342Z,3.00
2018-12-18T03:46:19.332Z,2.94
2018-12-18T03:47:19.323Z,3.00
2018-12-18T03:48:19.365Z,2.97
2018-12-18T03:49:19.299Z,3.02
2018-12-18T03:50:19.288Z,2.99
2018-12-18T03:51:19.281Z,3.04
2018-12-18T03:52:19.265Z,3.00
2018-12-18T03:53:19.257Z,3.07
2018-12-18T03:54:19.284Z,3.07
2018-12-18T03:55:19.233Z,2.99
2018-12-18T03:56:19.224Z,3.02
2018-12-18T03:57:19.211Z,3.00
2018-12-18T03:58:19.203Z,3.05
2018-12-18T03:59:19.195Z,3.11
2018-12-18T04:00:19.231Z,2.99
2018-12-18T04:01:19.171Z,2.96
2018-12-18T04:02:19.159Z,3.00
2018-12-18T04:03:19.205Z,3.02
2018-12-18T04:04:19.139Z,2.91
2018-12-18T04:05:19.206Z,2.96
2018-12-18T04:06:19.163Z,2.97
2018-12-18T04:07:19.107Z,2.94
2018-12-18T04:08:19.093Z,2.97
2018-12-18T04:09:19.083Z,3.04
2018-12-18T04:10:19.075Z,3.00
2018-12-18T04:11:19.061Z,3.04
2018-12-18T04:12:19.100Z,2.91
2018-12-18T04:13:19.041Z,3.07
2018-12-18T04:14:19.035Z,3.08
2018-12-18T04:15:19.020Z,3.23
2018-12-18T04:16:19.007Z,3.12
2018-12-18T04:17:19.000Z,3.15
2018-12-18T04:18:19.036Z,3.09
2018-12-18T04:19:18.976Z,3.09
2018-12-18T04:20:18.963Z,3.18
2018-12-18T04:21:18.993Z,3.11
2018-12-18T04:22:18.946Z,3.12
2018-12-18T04:23:18.931Z,3.12
2018-12-18T04:24:18.927Z,3.12
2018-12-18T04:25:18.959Z,3.11
2018-12-18T04:26:18.901Z,3.15
2018-12-18T04:27:18.891Z,3.18
2018-12-18T04:28:18.879Z,3.15
2018-12-18T04:29:18.868Z,3.25
2018-12-18T04:30:18.910Z,3.11
2018-12-18T04:31:18.846Z,3.15
2018-12-18T04:32:18.835Z,3.08
2018-12-18T04:33:18.826Z,3.11
2018-12-18T04:34:18.813Z,3.05
2018-12-18T04:35:18.811Z,3.07
2018-12-18T04:36:18.841Z,3.07
2018-12-18T04:37:18.782Z,3.17
2018-12-18T04:38:18.769Z,3.15
2018-12-18T04:39:18.765Z,3.20
2018-12-18T04:40:18.748Z,3.25
2018-12-18T04:41:18.747Z,3.12
2018-12-18T04:42:18.775Z,3.32
2018-12-18T04:43:18.725Z,3.30
2018-12-18T04:44:18.707Z,3.32
2018-12-18T04:45:18.693Z,3.30
2018-12-18T04:46:18.689Z,3.26
2018-12-18T04:47:18.677Z,3.33
2018-12-18T04:48:18.710Z,3.26
2018-12-18T04:49:18.650Z,3.35
2018-12-18T04:50:18.682Z,3.56
2018-12-18T04:51:18.629Z,3.59
2018-12-18T04:52:18.625Z,3.54
2018-12-18T04:53:18.651Z,3.72
2018-12-18T04:54:18.596Z,3.78
2018-12-18T04:55:18.587Z,3.78
2018-12-18T04:56:18.575Z,3.82
2018-12-18T04:57:18.564Z,3.82
2018-12-18T04:58:18.554Z,3.81
2018-12-18T04:59:18.588Z,3.76
2018-12-18T05:00:18.546Z,3.92
2018-12-18T05:01:18.568Z,3.84
2018-12-18T05:02:18.510Z,3.84
2018-12-18T05:03:18.502Z,3.78
2018-12-18T05:04:18.501Z,3.82
2018-12-18T05:05:18.515Z,3.78
2018-12-18T05:06:18.468Z,3.94
2018-12-18T05:07:18.604Z,3.85
2018-12-18T05:08:18.493Z,3.92
2018-12-18T05:09:18.438Z,4.02
2018-12-18T05:10:18.435Z,3.98
2018-12-18T05:11:18.415Z,3.94
2018-12-18T05:12:18.406Z,3.87
2018-12-18T05:13:18.396Z,3.85
2018-12-18T05:14:18.429Z,3.66
2018-12-18T05:15:18.387Z,3.64
2018-12-18T05:16:18.358Z,3.59
2018-12-18T05:17:18.350Z,3.56
2018-12-18T05:18:18.355Z,3.66
2018-12-18T05:19:18.370Z,3.52
2018-12-18T05:20:18.315Z,3.56
2018-12-18T05:21:18.306Z,3.55
2018-12-18T05:22:18.344Z,3.70
2018-12-18T05:23:18.284Z,3.70
2018-12-18T05:24:18.277Z,3.73
2018-12-18T05:25:18.264Z,3.72
2018-12-18T05:26:18.254Z,3.60
2018-12-18T05:27:18.242Z,3.56
2018-12-18T05:28:18.274Z,3.51
2018-12-18T05:29:18.220Z,3.64
2018-12-18T05:30:18.210Z,3.62
2018-12-18T05:31:18.201Z,3.54
2018-12-18T05:32:18.189Z,3.48
2018-12-18T05:33:18.179Z,3.45
2018-12-18T05:34:18.220Z,3.32
2018-12-18T05:35:18.155Z,3.35
2018-12-18T05:36:18.196Z,3.36
2018-12-18T05:37:18.140Z,3.45
2018-12-18T05:38:18.125Z,3.33
2018-12-18T05:39:18.115Z,3.27
2018-12-18T05:40:18.104Z,3.29
2018-12-18T05:41:18.094Z,3.32
2018-12-18T05:42:18.368Z,3.29
2018-12-18T05:43:18.072Z,3.15
2018-12-18T05:44:18.067Z,3.25
2018-12-18T05:45:18.049Z,3.25
2018-12-18T05:46:18.038Z,3.26
2018-12-18T05:47:18.035Z,3.20
2018-12-18T05:48:18.058Z,3.27
2018-12-18T05:49:18.051Z,3.33
2018-12-18T05:50:18.007Z,3.30
2018-12-18T05:51:17.985Z,3.30
2018-12-18T05:52:17.974Z,3.35
2018-12-18T05:53:17.963Z,3.41
2018-12-18T05:54:17.950Z,3.36
2018-12-18T05:55:17.988Z,3.23
2018-12-18T05:56:17.930Z,3.30
2018-12-18T05:57:17.921Z,3.29
2018-12-18T05:58:17.963Z,3.30
2018-12-18T05:59:17.899Z,3.32
2018-12-18T06:00:17.888Z,3.35
2018-12-18T06:01:17.886Z,3.36
2018-12-18T06:02:17.873Z,3.54
2018-12-18T06:03:17.869Z,3.55
2018-12-18T06:04:17.896Z,3.67
2018-12-18T06:05:17.842Z,3.81
2018-12-18T06:06:17.830Z,3.90
2018-12-18T06:07:17.817Z,4.00
2018-12-18T06:08:17.807Z,3.99
2018-12-18T06:09:17.790Z,3.96
2018-12-18T06:10:18.068Z,4.02
2018-12-18T06:11:17.773Z,4.02
2018-12-18T06:12:17.785Z,4.06
2018-12-18T06:13:17.753Z,3.98
2018-12-18T06:14:17.738Z,4.06
2018-12-18T06:15:17.735Z,4.10
2018-12-18T06:16:17.769Z,4.17
2018-12-18T06:17:17.758Z,4.26
2018-12-18T06:18:17.696Z,4.24
2018-12-18T06:19:17.704Z,4.31
2018-12-18T06:20:17.686Z,4.38
2018-12-18T06:21:17.678Z,4.34
2018-12-18T06:22:17.656Z,4.36
2018-12-18T06:23:17.721Z,4.36
2018-12-18T06:24:17.631Z,4.39
2018-12-18T06:25:17.621Z,4.45
2018-12-18T06:26:17.615Z,4.39
2018-12-18T06:27:17.613Z,4.38
2018-12-18T06:28:17.646Z,4.20
2018-12-18T06:29:17.689Z,4.27
2018-12-18T06:30:17.583Z,4.34
2018-12-18T06:31:17.570Z,4.30
2018-12-18T06:32:17.581Z,4.12
2018-12-18T06:33:17.555Z,4.09
2018-12-18T06:34:17.578Z,4.05
2018-12-18T06:35:17.556Z,4.13
2018-12-18T06:36:17.563Z,4.20
2018-12-18T06:37:17.492Z,4.27
2018-12-18T06:38:17.518Z,4.34
2018-12-18T06:39:17.469Z,4.23
2018-12-18T06:40:17.462Z,4.23
2018-12-18T06:41:17.454Z,4.20
2018-12-18T06:42:17.481Z,4.23
2018-12-18T06:43:17.458Z,4.24
2018-12-18T06:44:17.416Z,4.20
2018-12-18T06:45:17.441Z,4.12
2018-12-18T06:46:17.443Z,4.08
2018-12-18T06:47:17.383Z,4.10
2018-12-18T06:48:17.439Z,4.18
2018-12-18T06:49:17.388Z,4.24
2018-12-18T06:50:17.376Z,4.31
2018-12-18T06:51:17.338Z,4.35
2018-12-18T06:52:17.329Z,4.53
2018-12-18T06:53:17.323Z,4.56
2018-12-18T06:54:17.394Z,4.53
2018-12-18T06:55:17.299Z,4.56
2018-12-18T06:56:17.575Z,4.46
2018-12-18T06:57:17.279Z,4.53
2018-12-18T06:58:17.266Z,4.49
2018-12-18T06:59:17.262Z,4.57
2018-12-18T07:00:17.264Z,4.61
2018-12-18T07:01:17.233Z,4.59
2018-12-18T07:02:17.333Z,4.66
2018-12-18T07:03:17.222Z,4.56
2018-12-18T07:04:17.202Z,4.54
2018-12-18T07:05:17.273Z,4.63
2018-12-18T07:06:17.185Z,4.57
2018-12-18T07:07:17.215Z,4.59
2018-12-18T07:08:17.207Z,4.61
2018-12-18T07:09:17.778Z,4.61
2018-12-18T07:10:17.161Z,4.54
2018-12-18T07:11:17.186Z,4.59
2018-12-18T07:12:17.114Z,4.59
2018-12-18T07:13:17.392Z,4.60
2018-12-18T07:14:17.092Z,4.71
2018-12-18T07:15:17.114Z,4.61
2018-12-18T07:16:17.107Z,4.61
2018-12-18T07:17:17.078Z,4.60
2018-12-18T07:18:17.052Z,4.63
2018-12-18T07:19:17.250Z,4.64
2018-12-18T07:20:17.036Z,4.66
2018-12-18T07:21:17.078Z,4.63
2018-12-18T07:22:17.048Z,4.57
2018-12-18T07:23:17.075Z,4.59
2018-12-18T07:24:16.989Z,4.60
2018-12-18T07:25:17.178Z,4.45
2018-12-18T07:26:17.011Z,4.38
2018-12-18T07:27:16.978Z,4.34
2018-12-18T07:28:16.962Z,4.31
2018-12-18T07:29:16.950Z,4.34
2018-12-18T07:30:16.920Z,4.48
2018-12-18T07:31:16.982Z,4.48
2018-12-18T07:32:16.904Z,4.54
2018-12-18T07:33:16.885Z,4.56
2018-12-18T07:34:17.091Z,4.60
2018-12-18T07:35:23.096Z,4.46
2018-12-18T07:36:17.917Z,4.48
2018-12-18T07:37:17.029Z,4.48
2018-12-18T07:38:16.854Z,4.43
2018-12-18T07:39:16.828Z,4.38
2018-12-18T07:40:16.817Z,4.38
2018-12-18T07:41:16.864Z,4.28
2018-12-18T07:42:16.790Z,4.27
2018-12-18T07:43:16.837Z,4.31
2018-12-18T07:44:16.782Z,4.20
2018-12-18T07:45:16.814Z,4.31
2018-12-18T07:46:16.773Z,4.31
2018-12-18T07:47:16.827Z,4.39
2018-12-18T07:48:16.850Z,4.34
2018-12-18T07:49:16.719Z,4.41
2018-12-18T07:50:16.770Z,4.51
2018-12-18T07:51:16.792Z,4.43
2018-12-18T07:52:17.655Z,4.31
2018-12-18T07:53:16.762Z,4.36
2018-12-18T07:54:16.722Z,4.43
2018-12-18T07:55:16.659Z,4.46
2018-12-18T07:56:16.673Z,4.51
2018-12-18T07:57:16.639Z,4.45
2018-12-18T07:58:16.643Z,4.42
2018-12-18T07:59:16.651Z,4.36
2018-12-18T08:00:17.169Z,4.51
2018-12-18T08:01:16.708Z,4.51
2018-12-18T08:02:16.728Z,4.57
2018-12-18T08:03:16.646Z,4.59
2018-12-18T08:04:16.870Z,4.71
2018-12-18T08:05:17.861Z,4.77
2018-12-18T08:06:16.656Z,4.82
2018-12-18T08:07:16.522Z,4.94
2018-12-18T08:08:16.552Z,5.03
2018-12-18T08:09:16.578Z,4.98
2018-12-18T08:10:16.595Z,5.04
2018-12-18T08:11:16.569Z,5.04
2018-12-18T08:12:16.481Z,5.09
2018-12-18T08:13:17.404Z,5.11
2018-12-18T08:14:16.511Z,5.01
2018-12-18T08:15:16.440Z,5.09
2018-12-18T08:16:17.023Z,5.09
2018-12-18T08:17:16.473Z,5.22
2018-12-18T08:18:16.549Z,5.22
2018-12-18T08:19:16.390Z,5.27
2018-12-18T08:20:16.433Z,5.25
2018-12-18T08:21:16.521Z,5.24
2018-12-18T08:22:16.387Z,5.29
2018-12-18T08:23:16.472Z,5.36
2018-12-18T08:24:16.392Z,5.27
2018-12-18T08:25:16.381Z,5.36
2018-12-18T08:26:16.328Z,5.37
2018-12-18T08:27:16.446Z,5.32
2018-12-18T08:28:16.448Z,5.33
2018-12-18T08:29:16.321Z,5.32
2018-12-18T08:30:16.354Z,5.36
2018-12-18T08:31:16.280Z,5.30
2018-12-18T08:32:16.410Z,5.39
2018-12-18T08:33:16.421Z,5.37
2018-12-18T08:34:16.230Z,5.24
2018-12-18T08:35:16.351Z,5.37
2018-12-18T08:36:16.271Z,5.32
2018-12-18T08:37:16.550Z,5.37
2018-12-18T08:38:16.191Z,5.33
2018-12-18T08:39:16.181Z,5.32
2018-12-18T08:40:16.553Z,5.33
2018-12-18T08:41:16.170Z,5.41
2018-12-18T08:42:16.518Z,5.40
2018-12-18T08:43:16.190Z,5.43
2018-12-18T08:44:16.183Z,5.36
2018-12-18T08:45:16.355Z,5.47
2018-12-18T08:46:16.247Z,5.50
2018-12-18T08:47:16.131Z,5.57
2018-12-18T08:48:16.205Z,5.54
2018-12-18T08:49:16.088Z,5.70
2018-12-18T08:50:16.060Z,5.76
2018-12-18T08:51:16.067Z,5.77
2018-12-18T08:52:16.128Z,5.82
2018-12-18T08:53:16.119Z,5.80
2018-12-18T08:54:16.159Z,5.84
2018-12-18T08:55:16.957Z,5.70
2018-12-18T08:56:16.053Z,5.73
2018-12-18T08:57:16.131Z,5.70
2018-12-18T08:58:16.022Z,5.73
2018-12-18T08:59:16.017Z,5.84
2018-12-18T09:00:16.000Z,5.85
2018-12-18T09:01:16.074Z,5.85
2018-12-18T09:02:15.952Z,5.90
2018-12-18T09:03:16.276Z,5.87
2018-12-18T09:04:16.152Z,5.79
2018-12-18T09:05:15.911Z,5.79
2018-12-18T09:06:15.908Z,5.79
2018-12-18T09:07:15.893Z,5.85
2018-12-18T09:08:15.887Z,5.82
2018-12-18T09:09:15.917Z,5.82
2018-12-18T09:10:15.849Z,5.82
2018-12-18T09:11:15.843Z,5.85
2018-12-18T09:12:15.823Z,5.87
2018-12-18T09:13:15.964Z,5.91
2018-12-18T09:14:15.848Z,5.94
2018-12-18T09:15:15.798Z,6.00
2018-12-18T09:16:15.882Z,6.02
2018-12-18T09:17:15.885Z,6.05
2018-12-18T09:18:15.766Z,6.02
2018-12-18T09:19:15.785Z,6.13
2018-12-18T09:20:15.791Z,6.13
2018-12-18T09:21:15.781Z,6.06
2018-12-18T09:22:15.709Z,6.05
2018-12-18T09:23:16.057Z,6.06
2018-12-18T09:24:15.747Z,6.11
2018-12-18T09:25:15.872Z,6.19
2018-12-18T09:26:15.692Z,6.21
2018-12-18T09:27:15.775Z,6.15
2018-12-18T09:28:15.685Z,6.30
2018-12-18T09:29:15.722Z,6.37
2018-12-18T09:30:16.158Z,6.52
2018-12-18T09:31:15.642Z,6.46
2018-12-18T09:32:15.646Z,6.47
2018-12-18T09:33:15.589Z,6.61
2018-12-18T09:34:15.592Z,6.60
2018-12-18T09:35:15.659Z,6.63
2018-12-18T09:36:15.711Z,6.64
2018-12-18T09:37:15.586Z,6.71
2018-12-18T09:38:15.534Z,6.75
2018-12-18T09:39:15.614Z,6.85
2018-12-18T09:40:15.528Z,6.83
2018-12-18T09:41:15.503Z,6.85
2018-12-18T09:42:15.556Z,6.92
2018-12-18T09:43:15.655Z,6.91
2018-12-18T09:44:15.511Z,6.92
2018-12-18T09:45:15.544Z,7.00
2018-12-18T09:46:15.523Z,6.99
2018-12-18T09:47:15.549Z,7.00
2018-12-18T09:48:15.429Z,7.01
2018-12-18T09:49:15.436Z,7.03
2018-12-18T09:50:15.851Z,7.00
2018-12-18T09:51:15.451Z,7.00
2018-12-18T09:52:15.673Z,6.99
2018-12-18T09:53:15.384Z,7.07
2018-12-18T09:54:15.424Z,7.07
2018-12-18T09:55:15.717Z,7.11
2018-12-18T09:56:16.508Z,7.10
2018-12-18T09:57:16.357Z,7.15
2018-12-18T09:58:15.319Z,7.25
2018-12-18T09:59:15.386Z,7.28
2018-12-18T10:00:15.345Z,7.25
2018-12-18T10:01:15.329Z,7.36
2018-12-18T10:02:15.288Z,7.22
2018-12-18T10:03:15.263Z,7.34
2018-12-18T10:04:15.344Z,7.34
2018-12-18T10:05:15.244Z,7.36
2018-12-18T10:06:15.268Z,7.29
2018-12-18T10:07:15.751Z,7.42
2018-12-18T10:08:15.260Z,7.36
2018-12-18T10:09:15.347Z,7.44
2018-12-18T10:10:15.298Z,7.46
2018-12-18T10:11:15.170Z,7.43
2018-12-18T10:12:15.156Z,7.43
2018-12-18T10:13:15.196Z,7.44
2018-12-18T10:14:15.154Z,7.44
2018-12-18T10:15:15.169Z,7.47
2018-12-18T10:16:15.119Z,7.55
2018-12-18T10:17:15.146Z,7.66
2018-12-18T10:18:15.100Z,7.58
2018-12-18T10:19:15.158Z,7.69
2018-12-18T10:20:15.121Z,7.66
2018-12-18T10:21:15.104Z,7.73
2018-12-18T10:22:15.124Z,7.80
2018-12-18T10:23:15.038Z,7.74
2018-12-18T10:24:16.567Z,7.73
2018-12-18T10:25:15.035Z,7.64
2018-12-18T10:26:15.009Z,7.64
2018-12-18T10:27:14.988Z,7.64
2018-12-18T10:28:15.113Z,7.73
2018-12-18T10:29:14.973Z,7.78
2018-12-18T10:30:15.076Z,7.71
2018-12-18T10:31:14.993Z,7.62
2018-12-18T10:32:15.105Z,7.81
2018-12-18T10:33:15.004Z,7.83
2018-12-18T10:34:15.030Z,7.76
2018-12-18T10:35:14.929Z,7.94
2018-12-18T10:36:14.914Z,7.78
2018-12-18T10:37:14.898Z,7.94
2018-12-18T10:38:15.021Z,7.87
2018-12-18T10:39:14.866Z,7.81
2018-12-18T10:40:14.847Z,7.88
2018-12-18T10:41:14.847Z,7.96
2018-12-18T10:42:14.858Z,7.83
2018-12-18T10:43:14.836Z,7.91
2018-12-18T10:44:14.854Z,7.84
2018-12-18T10:45:14.848Z,7.94
2018-12-18T10:46:14.794Z,7.94
2018-12-18T10:47:14.809Z,7.96
2018-12-18T10:48:14.788Z,8.04
2018-12-18T10:49:14.854Z,7.98
2018-12-18T10:50:14.756Z,7.98
2018-12-18T10:51:14.886Z,8.02
2018-12-18T10:52:14.868Z,7.99
2018-12-18T10:53:14.707Z,8.06
2018-12-18T10:54:14.703Z,8.06
2018-12-18T10:55:15.685Z,8.12
2018-12-18T10:56:14.825Z,8.13
2018-12-18T10:57:14.670Z,8.12
2018-12-18T10:58:14.652Z,8.04
2018-12-18T10:59:14.810Z,8.13
2018-12-18T11:00:14.668Z,8.13
2018-12-18T11:01:14.624Z,8.02
2018-12-18T11:02:14.771Z,8.09
2018-12-18T11:03:14.751Z,7.99
2018-12-18T11:04:14.607Z,7.98
2018-12-18T11:05:14.570Z,8.14
2018-12-18T11:06:14.642Z,8.06
2018-12-18T11:07:14.612Z,7.96
2018-12-18T11:08:14.649Z,8.12
2018-12-18T11:09:14.561Z,8.04
2018-12-18T11:10:14.560Z,7.95
2018-12-18T11:11:14.540Z,7.86
2018-12-18T11:12:14.497Z,7.86
2018-12-18T11:13:14.633Z,7.88
2018-12-18T11:14:14.468Z,7.94
2018-12-18T11:15:14.456Z,7.95
2018-12-18T11:16:14.451Z,7.92
2018-12-18T11:17:14.461Z,7.99
2018-12-18T11:18:14.428Z,7.91
2018-12-18T11:19:15.133Z,7.91
2018-12-18T11:20:14.417Z,7.86
2018-12-18T11:21:14.403Z,7.81
2018-12-18T11:22:14.437Z,7.88
2018-12-18T11:23:14.375Z,7.88
2018-12-18T11:24:14.359Z,7.94
2018-12-18T11:25:14.410Z,7.94
2018-12-18T11:26:14.342Z,7.91
2018-12-18T11:27:14.355Z,7.91
2018-12-18T11:28:14.344Z,7.94
2018-12-18T11:29:14.304Z,7.87
2018-12-18T11:30:14.307Z,7.87
2018-12-18T11:31:14.433Z,7.98
2018-12-18T11:32:14.426Z,8.13
2018-12-18T11:33:14.431Z,8.12
2018-12-18T11:34:14.261Z,8.19
2018-12-18T11:35:14.237Z,8.09
2018-12-18T11:36:16.683Z,8.13
2018-12-18T11:37:14.311Z,8.14
2018-12-18T11:38:14.218Z,7.96
2018-12-18T11:39:14.273Z,8.02
2018-12-18T11:40:14.203Z,7.96
2018-12-18T11:41:14.246Z,7.78
2018-12-18T11:42:14.158Z,7.76
2018-12-18T11:43:14.195Z,7.78
2018-12-18T11:44:14.141Z,7.80
2018-12-18T11:45:14.133Z,7.73
2018-12-18T11:46:14.130Z,7.73
2018-12-18T11:47:14.112Z,7.76
2018-12-18T11:48:14.380Z,7.80
2018-12-18T11:49:14.148Z,7.83
2018-12-18T11:50:14.071Z,7.88
2018-12-18T11:51:14.152Z,7.74
2018-12-18T11:52:14.041Z,7.80
2018-12-18T11:53:14.032Z,7.80
2018-12-18T11:54:14.176Z,7.76
2018-12-18T11:55:14.021Z,7.78
2018-12-18T11:56:14.027Z,7.71
2018-12-18T11:57:14.123Z,7.68
2018-12-18T11:58:14.016Z,7.64
2018-12-18T11:59:15.348Z,7.69
2018-12-18T12:00:13.982Z,7.77
2018-12-18T12:01:13.951Z,7.78
2018-12-18T12:02:13.951Z,7.87
2018-12-18T12:03:13.964Z,7.88
2018-12-18T12:04:13.952Z,7.84
2018-12-18T12:05:13.909Z,7.80
2018-12-18T12:06:13.887Z,7.74
2018-12-18T12:07:15.781Z,7.81
2018-12-18T12:08:13.871Z,7.71
2018-12-18T12:09:13.859Z,7.76
2018-12-18T12:10:13.877Z,7.84
2018-12-18T12:11:13.908Z,7.87
2018-12-18T12:12:13.841Z,7.94
2018-12-18T12:13:13.831Z,7.87
2018-12-18T12:14:13.960Z,7.77
2018-12-18T12:15:13.933Z,7.71
2018-12-18T12:16:13.808Z,7.71
2018-12-18T12:17:13.785Z,7.69
2018-12-18T12:18:13.751Z,7.60
2018-12-18T12:19:13.794Z,7.60
2018-12-18T12:20:13.742Z,7.74
2018-12-18T12:21:13.794Z,7.74
2018-12-18T12:22:13.717Z,7.94
2018-12-18T12:23:13.714Z,7.96
2018-12-18T12:24:13.696Z,7.69
2018-12-18T12:25:13.951Z,7.78
2018-12-18T12:26:13.664Z,7.80
2018-12-18T12:27:13.651Z,7.78
2018-12-18T12:28:13.648Z,7.77
2018-12-18T12:29:13.651Z,7.77
2018-12-18T12:30:13.621Z,7.74
2018-12-18T12:31:13.668Z,7.74
2018-12-18T12:32:13.597Z,7.81
2018-12-18T12:33:13.648Z,7.80
2018-12-18T12:34:13.576Z,7.73
2018-12-18T12:35:13.641Z,7.68
2018-12-18T12:36:13.575Z,7.60
2018-12-18T12:37:13.558Z,7.71
2018-12-18T12:38:13.536Z,7.68
2018-12-18T12:39:13.519Z,7.68
2018-12-18T12:40:13.532Z,7.71
2018-12-18T12:41:13.553Z,7.71
2018-12-18T12:42:13.498Z,7.61
2018-12-18T12:43:13.474Z,7.68
2018-12-18T12:44:13.462Z,7.68
2018-12-18T12:45:13.456Z,7.62
2018-12-18T12:46:13.634Z,7.62
2018-12-18T12:47:13.462Z,7.58
2018-12-18T12:48:13.469Z,7.55
2018-12-18T12:49:13.406Z,7.60
2018-12-18T12:50:13.395Z,7.61
2018-12-18T12:51:13.382Z,7.68
2018-12-18T12:52:13.368Z,7.74
2018-12-18T12:53:13.373Z,7.66
2018-12-18T12:54:13.424Z,7.64
2018-12-18T12:55:13.349Z,7.74
2018-12-18T12:56:13.366Z,7.76
2018-12-18T12:57:13.337Z,7.71
2018-12-18T12:58:13.320Z,7.78
2018-12-18T12:59:13.294Z,7.76
2018-12-18T13:00:13.354Z,7.86
2018-12-18T13:01:13.323Z,7.88
2018-12-18T13:02:13.314Z,7.86
2018-12-18T13:03:13.277Z,7.84
2018-12-18T13:04:13.243Z,7.84
2018-12-18T13:05:13.274Z,7.88
2018-12-18T13:06:13.226Z,8.01
2018-12-18T13:07:13.202Z,7.92
2018-12-18T13:08:13.243Z,7.94
2018-12-18T13:09:13.199Z,8.02
2018-12-18T13:10:13.264Z,8.13
2018-12-18T13:11:13.178Z,8.01
2018-12-18T13:12:13.232Z,8.02
2018-12-18T13:13:13.146Z,8.04
2018-12-18T13:14:13.142Z,8.01
2018-12-18T13:15:13.110Z,7.96
2018-12-18T13:16:13.106Z,7.98
2018-12-18T13:17:13.101Z,7.91
2018-12-18T13:18:13.133Z,7.96